createdAt,value
2022-12-15T00:00:34.928Z,93672.03
2022-12-15T00:03:06.025Z,93674.97
2022-12-15T00:05:32.839Z,93675.88
2022-12-15T00:08:09.609Z,93669.09
2022-12-15T00:10:36.276Z,93673.47
2022-12-15T00:13:03.078Z,93662.38
2022-12-15T00:15:29.548Z,93670.84
2022-12-15T00:17:56.041Z,93662.66
2022-12-15T00:20:22.749Z,93659.81
2022-12-15T00:22:49.422Z,93662.34
2022-12-15T00:25:16.046Z,93663.47
2022-12-15T00:27:42.567Z,93651.84
2022-12-15T00:30:10.795Z,93656.59
2022-12-15T00:32:42.650Z,93656.22
2022-12-15T00:35:11.290Z,93662.22
2022-12-15T00:37:47.757Z,93669.81
2022-12-15T00:40:14.330Z,93668.16
2022-12-15T00:42:40.847Z,93663.44
2022-12-15T00:45:07.947Z,93658.66
2022-12-15T00:47:34.451Z,93657.97
2022-12-15T00:50:01.072Z,93648.66
2022-12-15T00:52:27.693Z,93654.09
2022-12-15T00:54:54.194Z,93648.38
2022-12-15T00:57:20.828Z,93640.09
2022-12-15T00:59:47.437Z,93642.88
2022-12-15T01:02:14.037Z,93640.56
2022-12-15T01:04:40.677Z,93647.47
2022-12-15T01:07:07.219Z,93661.00
2022-12-15T01:09:33.999Z,93655.63
2022-12-15T01:12:00.561Z,93659.47
2022-12-15T01:14:27.658Z,93647.78
2022-12-15T01:16:54.198Z,93651.03
2022-12-15T01:19:20.725Z,93659.44
2022-12-15T01:21:47.258Z,93656.50
2022-12-15T01:24:13.771Z,93669.00
2022-12-15T01:26:40.313Z,93673.56
2022-12-15T01:29:06.798Z,93672.75
2022-12-15T01:31:33.410Z,93670.88
2022-12-15T01:34:00.015Z,93677.47
2022-12-15T01:36:26.531Z,93686.66
2022-12-15T01:38:54.589Z,93687.88
2022-12-15T01:41:21.466Z,93687.38
2022-12-15T01:43:49.939Z,93691.28
2022-12-15T01:46:19.577Z,93683.91
2022-12-15T01:48:57.976Z,93695.72
2022-12-15T01:51:32.476Z,93682.13
2022-12-15T01:54:07.423Z,93698.84
2022-12-15T01:56:38.170Z,93671.47
2022-12-15T01:59:07.961Z,93677.75
2022-12-15T02:01:35.008Z,93690.69
2022-12-15T02:04:02.423Z,93687.91
2022-12-15T02:06:29.740Z,93682.22
2022-12-15T02:08:57.335Z,93678.44
2022-12-15T02:11:57.958Z,93681.22
2022-12-15T02:14:36.529Z,93686.31
2022-12-15T02:17:22.678Z,93670.34
2022-12-15T02:20:24.435Z,93684.28
2022-12-15T02:23:29.744Z,93676.56
2022-12-15T02:26:05.506Z,93671.16
2022-12-15T02:28:43.675Z,93666.25
2022-12-15T02:31:16.008Z,93663.75
2022-12-15T02:33:51.958Z,93664.06
2022-12-15T02:36:27.589Z,93656.97
2022-12-15T02:38:54.077Z,93658.09
2022-12-15T02:41:36.877Z,93657.38
2022-12-15T02:44:13.118Z,93665.34
2022-12-15T02:46:54.351Z,93658.31
2022-12-15T02:49:46.302Z,93668.41
2022-12-15T02:52:22.344Z,93680.47
2022-12-15T02:55:19.893Z,93669.03
2022-12-15T02:57:59.172Z,93670.50
2022-12-15T03:00:26.402Z,93668.81
2022-12-15T03:02:54.665Z,93673.13
2022-12-15T03:05:22.393Z,93665.66
2022-12-15T03:07:50.876Z,93661.53
2022-12-15T03:10:18.007Z,93667.53
2022-12-15T03:12:44.557Z,93656.22
2022-12-15T03:15:11.269Z,93654.22
2022-12-15T03:17:38.121Z,93657.22
2022-12-15T03:20:05.465Z,93666.97
2022-12-15T03:22:32.020Z,93661.97
2022-12-15T03:24:58.542Z,93654.91
2022-12-15T03:27:25.135Z,93659.25
2022-12-15T03:29:51.669Z,93657.97
2022-12-15T03:32:18.276Z,93666.38
2022-12-15T03:34:44.839Z,93658.25
2022-12-15T03:37:11.418Z,93660.75
2022-12-15T03:39:39.058Z,93657.91
2022-12-15T03:42:05.628Z,93654.38
2022-12-15T03:44:32.103Z,93658.75
2022-12-15T03:47:02.981Z,93655.03
2022-12-15T03:49:30.400Z,93662.91
2022-12-15T03:51:56.946Z,93660.59
2022-12-15T03:54:23.588Z,93655.47
2022-12-15T03:56:50.116Z,93657.06
2022-12-15T03:59:16.706Z,93653.84
2022-12-15T04:01:47.015Z,93643.19
2022-12-15T04:04:13.541Z,93638.59
2022-12-15T04:06:40.043Z,93643.56
2022-12-15T04:09:06.541Z,93646.19
2022-12-15T04:11:33.053Z,93632.56
2022-12-15T04:14:19.641Z,93634.88
2022-12-15T04:17:06.270Z,93637.97
2022-12-15T04:19:48.327Z,93635.63
2022-12-15T04:22:17.911Z,93634.06
2022-12-15T04:24:44.714Z,93627.34
2022-12-15T04:27:11.215Z,93628.34
2022-12-15T04:29:37.718Z,93629.38
2022-12-15T04:32:04.227Z,93624.16
2022-12-15T04:34:30.703Z,93623.81
2022-12-15T04:36:57.421Z,93620.28
2022-12-15T04:39:24.415Z,93625.66
2022-12-15T04:41:51.899Z,93633.34
2022-12-15T04:44:18.514Z,93640.50
2022-12-15T04:46:45.020Z,93639.00
2022-12-15T04:49:11.508Z,93629.78
2022-12-15T04:51:38.032Z,93635.44
2022-12-15T04:54:04.507Z,93637.22
2022-12-15T04:56:31.993Z,93619.28
2022-12-15T04:58:58.984Z,93635.25
2022-12-15T05:01:25.724Z,93628.16
2022-12-15T05:03:52.462Z,93618.69
2022-12-15T05:06:19.010Z,93610.91
2022-12-15T05:08:45.495Z,93607.16
2022-12-15T05:11:16.838Z,93611.03
2022-12-15T05:13:43.489Z,93601.41
2022-12-15T05:16:10.118Z,93603.31
2022-12-15T05:18:36.790Z,93602.66
2022-12-15T05:21:03.398Z,93597.47
2022-12-15T05:23:30.526Z,93583.69
2022-12-15T05:25:59.064Z,93590.56
2022-12-15T05:28:25.616Z,93596.66
2022-12-15T05:30:52.185Z,93593.38
2022-12-15T05:33:18.754Z,93595.16
2022-12-15T05:35:46.229Z,93590.75
2022-12-15T05:38:12.713Z,93589.91
2022-12-15T05:40:39.345Z,93585.84
2022-12-15T05:43:05.880Z,93586.66
2022-12-15T05:45:33.102Z,93590.72
2022-12-15T05:47:59.609Z,93587.75
2022-12-15T05:50:26.116Z,93580.41
2022-12-15T05:52:52.782Z,93578.78
2022-12-15T05:55:19.552Z,93595.91
2022-12-15T05:57:55.461Z,93598.22
2022-12-15T06:00:22.651Z,93599.63
2022-12-15T06:02:49.872Z,93598.34
2022-12-15T06:05:17.208Z,93602.53
2022-12-15T06:07:43.779Z,93592.66
2022-12-15T06:10:10.327Z,93603.09
2022-12-15T06:12:36.837Z,93593.44
2022-12-15T06:15:03.532Z,93599.34
2022-12-15T06:17:30.096Z,93591.66
2022-12-15T06:19:56.644Z,93583.28
2022-12-15T06:22:23.351Z,93583.72
2022-12-15T06:24:49.917Z,93582.31
2022-12-15T06:27:16.479Z,93586.59
2022-12-15T06:29:42.971Z,93589.66
2022-12-15T06:32:09.523Z,93592.16
2022-12-15T06:34:35.998Z,93603.34
2022-12-15T06:37:02.725Z,93606.91
2022-12-15T06:39:29.330Z,93612.66
2022-12-15T06:41:55.847Z,93628.94
2022-12-15T06:44:22.403Z,93629.72
2022-12-15T06:46:49.054Z,93637.28
2022-12-15T06:49:15.593Z,93632.47
2022-12-15T06:51:42.343Z,93635.44
2022-12-15T06:54:09.649Z,93647.09
2022-12-15T06:56:36.247Z,93639.91
2022-12-15T06:59:04.686Z,93658.63
2022-12-15T07:01:31.980Z,93663.06
2022-12-15T07:03:59.470Z,93659.03
2022-12-15T07:06:26.169Z,93660.03
2022-12-15T07:08:53.946Z,93673.28
2022-12-15T07:11:24.292Z,93677.91
2022-12-15T07:13:54.825Z,93670.25
2022-12-15T07:16:22.800Z,93681.00
2022-12-15T07:18:49.635Z,93689.69
2022-12-15T07:21:16.422Z,93689.72
2022-12-15T07:23:58.956Z,93693.38
2022-12-15T07:26:26.372Z,93689.47
2022-12-15T07:28:54.095Z,93684.38
2022-12-15T07:31:21.706Z,93687.63
2022-12-15T07:33:48.608Z,93693.00
2022-12-15T07:36:16.812Z,93690.63
2022-12-15T07:38:43.389Z,93695.19
2022-12-15T07:41:10.047Z,93683.50
2022-12-15T07:43:37.472Z,93677.81
2022-12-15T07:46:05.327Z,93669.78
2022-12-15T07:48:32.198Z,93662.03
2022-12-15T07:51:07.380Z,93659.44
2022-12-15T07:53:36.170Z,93644.47
2022-12-15T07:56:09.263Z,93637.56
2022-12-15T07:58:36.623Z,93636.84
2022-12-15T08:01:05.337Z,93643.03
2022-12-15T08:03:35.743Z,93640.59
2022-12-15T08:06:07.108Z,93645.31
2022-12-15T08:08:34.766Z,93643.34
2022-12-15T08:11:06.200Z,93643.03
2022-12-15T08:16:20.846Z,93660.22
2022-12-15T08:18:47.433Z,93671.09
2022-12-15T08:21:14.006Z,93659.22
2022-12-15T08:23:40.471Z,93685.06
2022-12-15T08:26:12.171Z,93711.03
2022-12-15T08:28:40.610Z,93721.88
2022-12-15T08:31:12.189Z,93720.94
2022-12-15T08:33:39.335Z,93732.16
2022-12-15T08:36:08.238Z,93727.56
2022-12-15T08:38:35.560Z,93723.44
2022-12-15T08:41:15.660Z,93706.41
2022-12-15T08:43:48.044Z,93705.28
2022-12-15T08:46:16.164Z,93715.00
2022-12-15T08:48:43.169Z,93703.50
2022-12-15T08:51:09.700Z,93695.00
2022-12-15T08:53:36.518Z,93702.38
2022-12-15T08:56:11.872Z,93699.88
2022-12-15T08:58:38.671Z,93684.22
2022-12-15T09:01:07.267Z,93675.56
2022-12-15T09:03:35.481Z,93671.00
2022-12-15T09:06:06.204Z,93663.59
2022-12-15T09:08:33.710Z,93668.72
2022-12-15T09:11:00.871Z,93663.88
2022-12-15T09:13:28.503Z,93674.06
2022-12-15T09:16:11.191Z,93682.19
2022-12-15T09:18:38.144Z,93676.84
2022-12-15T09:21:06.442Z,93678.94
2022-12-15T09:23:33.866Z,93676.47
2022-12-15T09:26:05.961Z,93678.16
2022-12-15T09:28:32.486Z,93679.00
2022-12-15T09:31:06.547Z,93674.63
2022-12-15T09:33:34.180Z,93669.72
2022-12-15T09:36:01.023Z,93673.56
2022-12-15T09:38:27.596Z,93663.03
2022-12-15T09:40:54.295Z,93667.16
2022-12-15T09:43:46.712Z,93653.88
2022-12-15T09:46:23.617Z,93663.38
2022-12-15T09:48:51.369Z,93667.59
2022-12-15T09:51:18.826Z,93663.69
2022-12-15T09:53:54.796Z,93657.81
2022-12-15T09:56:27.483Z,93662.28
2022-12-15T09:58:57.194Z,93661.94
2022-12-15T10:01:35.691Z,93657.22
2022-12-15T10:04:18.104Z,93656.94
2022-12-15T10:07:13.880Z,93653.19
2022-12-15T10:09:40.430Z,93647.91
2022-12-15T10:12:19.840Z,93646.06
2022-12-15T10:14:51.400Z,93637.41
2022-12-15T10:17:36.087Z,93642.94
2022-12-15T10:20:22.678Z,93643.72
2022-12-15T10:22:50.200Z,93629.72
2022-12-15T10:25:30.702Z,93617.97
2022-12-15T10:28:07.747Z,93618.50
2022-12-15T10:30:34.626Z,93613.81
2022-12-15T10:33:21.305Z,93607.44
2022-12-15T10:35:48.642Z,93605.72
2022-12-15T10:38:25.199Z,93606.78
2022-12-15T10:41:04.856Z,93597.31
2022-12-15T10:43:36.168Z,93594.44
2022-12-15T10:46:08.967Z,93587.72
2022-12-15T10:48:36.674Z,93578.47
2022-12-15T10:51:37.328Z,93576.75
2022-12-15T10:54:08.811Z,93573.94
2022-12-15T10:56:50.090Z,93567.41
2022-12-15T10:59:30.616Z,93555.72
2022-12-15T11:02:23.057Z,93550.38
2022-12-15T11:05:01.764Z,93539.03
2022-12-15T11:07:35.348Z,93548.97
2022-12-15T11:10:08.757Z,93535.81
2022-12-15T11:12:35.288Z,93537.19
2022-12-15T11:15:01.782Z,93532.22
2022-12-15T11:17:38.847Z,93522.19
2022-12-15T11:20:07.674Z,93508.56
2022-12-15T11:22:53.457Z,93522.72
2022-12-15T11:25:32.259Z,93521.13
2022-12-15T11:28:00.443Z,93510.72
2022-12-15T11:30:33.284Z,93503.22
2022-12-15T11:33:00.930Z,93496.28
2022-12-15T11:35:44.364Z,93474.13
2022-12-15T11:38:32.522Z,93472.06
2022-12-15T11:41:21.299Z,93465.75
2022-12-15T11:44:06.294Z,93467.34
2022-12-15T11:46:56.815Z,93470.22
2022-12-15T11:49:26.312Z,93467.84
2022-12-15T11:52:00.408Z,93460.44
2022-12-15T11:54:30.303Z,93459.34
2022-12-15T11:57:03.208Z,93447.47
2022-12-15T11:59:32.939Z,93451.22
2022-12-15T12:02:29.957Z,93439.59
2022-12-15T12:05:40.772Z,93427.78
2022-12-15T12:08:14.361Z,93427.75
2022-12-15T12:11:08.733Z,93421.38
2022-12-15T12:13:38.314Z,93417.72
2022-12-15T12:16:35.153Z,93402.91
2022-12-15T12:19:06.283Z,93405.50
2022-12-15T12:21:39.715Z,93402.25
2022-12-15T12:24:21.500Z,93401.00
2022-12-15T12:27:24.607Z,93389.22
2022-12-15T12:29:53.997Z,93376.84
2022-12-15T12:32:59.919Z,93383.00
2022-12-15T12:35:45.863Z,93378.84
2022-12-15T12:38:13.970Z,93377.84
2022-12-15T12:40:40.388Z,93389.81
2022-12-15T12:43:13.491Z,93393.22
2022-12-15T12:45:50.301Z,93390.34
2022-12-15T12:48:37.301Z,93374.78
2022-12-15T12:51:24.642Z,93367.41
2022-12-15T12:53:51.966Z,93377.22
2022-12-15T12:56:36.263Z,93369.00
2022-12-15T12:59:04.742Z,93361.00
2022-12-15T13:01:33.393Z,93366.84
2022-12-15T13:04:15.883Z,93361.84
2022-12-15T13:06:42.322Z,93355.78
2022-12-15T13:09:17.834Z,93352.63
2022-12-15T13:12:03.178Z,93351.56
2022-12-15T13:14:42.999Z,93345.22
2022-12-15T13:17:35.733Z,93350.22
2022-12-15T13:20:16.326Z,93347.31
2022-12-15T13:22:43.044Z,93351.50
2022-12-15T13:25:42.775Z,93354.66
2022-12-15T13:28:37.620Z,93345.31
2022-12-15T13:31:16.179Z,93362.91
2022-12-15T13:33:51.658Z,93361.03
2022-12-15T13:36:36.629Z,93353.69
2022-12-15T13:39:05.703Z,93342.88
2022-12-15T13:41:32.192Z,93340.34
2022-12-15T13:44:00.380Z,93338.56
2022-12-15T13:46:28.730Z,93330.81
2022-12-15T13:49:14.887Z,93329.84
2022-12-15T13:51:44.976Z,93317.97
2022-12-15T13:54:30.903Z,93314.41
2022-12-15T13:57:04.136Z,93330.16
2022-12-15T13:59:36.142Z,93318.88
2022-12-15T14:02:02.971Z,93318.00
2022-12-15T14:04:29.497Z,93311.38
2022-12-15T14:06:58.310Z,93314.13
2022-12-15T14:09:28.096Z,93310.16
2022-12-15T14:11:55.051Z,93310.97
2022-12-15T14:14:27.307Z,93315.53
2022-12-15T14:17:01.295Z,93315.03
2022-12-15T14:19:38.627Z,93317.34
2022-12-15T14:22:23.306Z,93310.72
2022-12-15T14:25:00.462Z,93311.25
2022-12-15T14:27:32.201Z,93323.94
2022-12-15T14:30:24.759Z,93326.06
2022-12-15T14:32:58.524Z,93327.47
2022-12-15T14:35:49.469Z,93326.28
2022-12-15T14:38:38.913Z,93327.88
2022-12-15T14:41:05.782Z,93330.41
2022-12-15T14:43:35.386Z,93329.22
2022-12-15T14:46:16.256Z,93339.84
2022-12-15T14:49:22.183Z,93351.09
2022-12-15T14:51:52.257Z,93355.06
2022-12-15T14:54:31.238Z,93355.69
2022-12-15T14:57:22.329Z,93355.16
2022-12-15T14:59:49.173Z,93356.00
2022-12-15T15:02:38.360Z,93376.66
2022-12-15T15:05:06.425Z,93377.97
2022-12-15T15:07:34.389Z,93365.97
2022-12-15T15:10:02.058Z,93362.94
2022-12-15T15:12:44.389Z,93361.44
2022-12-15T15:15:18.314Z,93363.19
2022-12-15T15:17:59.041Z,93369.38
2022-12-15T15:20:31.040Z,93365.97
2022-12-15T15:23:07.431Z,93361.53
2022-12-15T15:25:49.055Z,93350.59
2022-12-15T15:28:33.798Z,93357.75
2022-12-15T15:31:25.914Z,93342.03
2022-12-15T15:33:53.023Z,93331.34
2022-12-15T15:36:20.233Z,93333.03
2022-12-15T15:38:46.858Z,93331.88
2022-12-15T15:41:28.485Z,93321.34
2022-12-15T15:43:55.696Z,93314.44
2022-12-15T15:46:23.624Z,93315.56
2022-12-15T15:48:58.459Z,93306.75
2022-12-15T15:51:26.207Z,93316.56
2022-12-15T15:53:53.772Z,93305.41
2022-12-15T15:56:20.996Z,93301.97
2022-12-15T15:58:50.628Z,93292.88
2022-12-15T16:01:17.201Z,93280.34
2022-12-15T16:03:43.810Z,93274.06
2022-12-15T16:06:17.360Z,93289.75
2022-12-15T16:08:45.198Z,93271.81
2022-12-15T16:11:12.896Z,93270.72
2022-12-15T16:13:39.584Z,93287.09
2022-12-15T16:16:06.763Z,93291.53
2022-12-15T16:18:33.696Z,93300.06
2022-12-15T16:21:00.420Z,93297.81
2022-12-15T16:23:28.488Z,93304.47
2022-12-15T16:25:59.300Z,93293.53
2022-12-15T16:28:31.007Z,93295.75
2022-12-15T16:30:58.469Z,93299.31
2022-12-15T16:33:25.728Z,93300.66
2022-12-15T16:35:52.719Z,93298.47
2022-12-15T16:38:28.962Z,93298.56
2022-12-15T16:40:56.680Z,93295.31
2022-12-15T16:43:25.687Z,93298.75
2022-12-15T16:45:56.927Z,93292.44
2022-12-15T16:48:25.815Z,93292.06
2022-12-15T16:50:57.408Z,93289.94
2022-12-15T16:53:29.622Z,93297.50
2022-12-15T16:55:59.684Z,93303.00
2022-12-15T16:58:27.307Z,93305.41
2022-12-15T17:00:53.832Z,93299.47
2022-12-15T17:03:21.440Z,93310.31
2022-12-15T17:05:50.009Z,93305.84
2022-12-15T17:08:24.991Z,93311.84
2022-12-15T17:10:51.983Z,93298.22
2022-12-15T17:13:39.179Z,93303.50
2022-12-15T17:16:11.137Z,93295.31
2022-12-15T17:18:38.110Z,93296.84
2022-12-15T17:21:07.656Z,93293.38
2022-12-15T17:23:35.350Z,93291.41
2022-12-15T17:26:22.632Z,93284.22
2022-12-15T17:28:49.196Z,93276.34
2022-12-15T17:31:20.729Z,93293.97
2022-12-15T17:33:47.946Z,93292.00
2022-12-15T17:36:17.250Z,93288.38
2022-12-15T17:38:43.850Z,93289.66
2022-12-15T17:41:29.056Z,93283.69
2022-12-15T17:46:47.324Z,93297.56
2022-12-15T17:49:13.896Z,93300.41
2022-12-15T17:51:42.372Z,93303.44
2022-12-15T17:54:12.905Z,93300.06
2022-12-15T17:56:39.556Z,93315.13
2022-12-15T17:59:12.959Z,93304.63
2022-12-15T18:01:39.553Z,93312.63
2022-12-15T18:04:06.153Z,93304.91
2022-12-15T18:06:32.727Z,93306.13
2022-12-15T18:08:59.247Z,93307.34
2022-12-15T18:11:25.741Z,93307.97
2022-12-15T18:13:52.234Z,93303.28
2022-12-15T18:16:18.823Z,93314.88
2022-12-15T18:18:45.391Z,93320.94
2022-12-15T18:21:13.900Z,93315.91
2022-12-15T18:23:40.456Z,93314.16
2022-12-15T18:26:08.733Z,93323.13
2022-12-15T18:28:35.374Z,93309.00
2022-12-15T18:31:19.728Z,93320.56
2022-12-15T18:33:46.367Z,93318.56
2022-12-15T18:36:13.299Z,93316.53
2022-12-15T18:38:40.029Z,93324.34
2022-12-15T18:41:09.804Z,93322.22
2022-12-15T18:43:36.290Z,93322.94
2022-12-15T18:46:03.116Z,93316.34
2022-12-15T18:48:32.860Z,93320.22
2022-12-15T18:51:00.716Z,93324.66
2022-12-15T18:53:36.820Z,93322.16
2022-12-15T18:56:06.162Z,93326.47
2022-12-15T18:58:34.793Z,93326.47
2022-12-15T19:01:02.760Z,93336.44
2022-12-15T19:03:30.330Z,93338.28
2022-12-15T19:06:02.496Z,93338.75
2022-12-15T19:08:30.028Z,93344.19
2022-12-15T19:11:01.494Z,93338.19
2022-12-15T19:13:31.087Z,93347.63
2022-12-15T19:15:59.118Z,93352.97
2022-12-15T19:18:25.879Z,93352.78
2022-12-15T19:20:52.384Z,93357.78
2022-12-15T19:23:18.932Z,93349.25
2022-12-15T19:25:46.762Z,93354.94
2022-12-15T19:28:21.670Z,93356.84
2022-12-15T19:30:48.516Z,93360.81
2022-12-15T19:33:16.246Z,93362.03
2022-12-15T19:35:45.261Z,93365.31
2022-12-15T19:38:20.626Z,93360.81
2022-12-15T19:40:47.520Z,93353.53
2022-12-15T19:43:16.205Z,93357.38
2022-12-15T19:45:43.210Z,93364.59
2022-12-15T19:48:10.828Z,93351.81
2022-12-15T19:50:38.083Z,93347.41
2022-12-15T19:53:25.531Z,93353.47
2022-12-15T19:55:54.305Z,93342.16
2022-12-15T19:58:28.796Z,93343.22
2022-12-15T20:01:01.035Z,93348.63
2022-12-15T20:03:29.242Z,93346.44
2022-12-15T20:05:56.788Z,93350.88
2022-12-15T20:08:28.451Z,93347.00
2022-12-15T20:10:55.802Z,93351.97
2022-12-15T20:13:22.845Z,93356.38
2022-12-15T20:15:49.481Z,93356.63
2022-12-15T20:18:16.000Z,93348.69
2022-12-15T20:20:43.992Z,93342.34
2022-12-15T20:23:23.219Z,93353.75
2022-12-15T20:25:49.753Z,93348.03
2022-12-15T20:28:21.236Z,93360.91
2022-12-15T20:30:48.210Z,93358.16
2022-12-15T20:33:15.230Z,93358.31
2022-12-15T20:35:42.879Z,93357.50
2022-12-15T20:38:27.409Z,93367.78
2022-12-15T20:40:54.893Z,93363.56
2022-12-15T20:43:22.282Z,93360.25
2022-12-15T20:45:58.386Z,93373.25
2022-12-15T20:48:25.247Z,93385.69
2022-12-15T20:50:51.782Z,93377.72
2022-12-15T20:53:24.027Z,93390.34
2022-12-15T20:55:52.072Z,93395.88
2022-12-15T20:58:19.454Z,93403.47
2022-12-15T21:00:47.019Z,93392.63
2022-12-15T21:03:26.047Z,93389.16
2022-12-15T21:05:55.171Z,93391.53
2022-12-15T21:08:28.156Z,93393.09
2022-12-15T21:10:56.583Z,93387.59
2022-12-15T21:13:25.765Z,93388.56
2022-12-15T21:15:52.500Z,93387.16
2022-12-15T21:19:03.545Z,93386.28
2022-12-15T21:21:06.829Z,93396.84
2022-12-15T21:23:36.383Z,93379.94
2022-12-15T21:26:05.194Z,93387.66
2022-12-15T21:28:31.946Z,93392.28
2022-12-15T21:30:58.828Z,93398.03
2022-12-15T21:33:25.461Z,93410.38
2022-12-15T21:35:52.280Z,93405.06
2022-12-15T21:38:45.599Z,93404.97
2022-12-15T21:41:15.691Z,93407.13
2022-12-15T21:43:42.591Z,93410.25
2022-12-15T21:46:26.251Z,93405.06
2022-12-15T21:48:55.815Z,93407.97
2022-12-15T21:51:22.403Z,93422.06
2022-12-15T21:53:48.931Z,93428.66
2022-12-15T21:56:17.737Z,93425.63
2022-12-15T21:58:45.528Z,93427.56
2022-12-15T22:01:13.692Z,93429.19
2022-12-15T22:03:41.496Z,93431.97
2022-12-15T22:06:17.296Z,93430.91
2022-12-15T22:08:43.861Z,93437.59
2022-12-15T22:11:18.224Z,93438.78
2022-12-15T22:13:44.731Z,93440.41
2022-12-15T22:16:14.598Z,93438.25
2022-12-15T22:18:41.159Z,93436.00
2022-12-15T22:21:07.900Z,93442.44
2022-12-15T22:23:34.452Z,93442.81
2022-12-15T22:26:01.022Z,93440.78
2022-12-15T22:28:28.650Z,93435.19
2022-12-15T22:30:56.194Z,93447.94
2022-12-15T22:33:25.035Z,93444.97
2022-12-15T22:35:53.492Z,93450.50
2022-12-15T22:38:23.032Z,93462.06
2022-12-15T22:40:51.766Z,93459.81
2022-12-15T22:43:49.235Z,93456.22
2022-12-15T22:46:16.328Z,93451.75
2022-12-15T22:48:44.888Z,93456.72
2022-12-15T22:51:13.459Z,93464.31
2022-12-15T22:53:40.314Z,93474.50
2022-12-15T22:56:24.274Z,93476.00
2022-12-15T22:58:54.831Z,93476.25
2022-12-15T23:01:21.425Z,93476.00
2022-12-15T23:03:51.943Z,93474.41
2022-12-15T23:06:18.562Z,93460.59
2022-12-15T23:08:45.144Z,93469.34
2022-12-15T23:11:12.137Z,93460.00
2022-12-15T23:13:38.724Z,93467.53
2022-12-15T23:16:06.221Z,93466.69
2022-12-15T23:18:32.802Z,93460.13
2022-12-15T23:20:59.289Z,93463.78
2022-12-15T23:23:25.775Z,93459.19
2022-12-15T23:25:52.966Z,93447.00
2022-12-15T23:28:20.791Z,93460.63
2022-12-15T23:30:54.050Z,93462.97
2022-12-15T23:33:21.611Z,93474.59
2022-12-15T23:35:48.495Z,93476.72
2022-12-15T23:38:15.036Z,93486.97
2022-12-15T23:40:52.662Z,93492.66
2022-12-15T23:43:20.285Z,93491.94
2022-12-15T23:45:54.760Z,93492.31
2022-12-15T23:48:21.665Z,93490.22
2022-12-15T23:50:48.193Z,93472.72
2022-12-15T23:53:14.683Z,93482.94
2022-12-15T23:55:41.184Z,93475.97
2022-12-15T23:58:07.711Z,93488.75
